Rumst, Belgium
Current Conditions -  °F | °C
As of 2:20 AM on Tuesday 25 Nov 2014 (Local Time) from EBAW Reporting Station
Moderate Fog Moderate Fog  
Wind Chill: 32°   Ceiling: Unl
Heat Index: 32°   Visibility: 0.15mi
Dew Point: 30°   Wind: 1mph
Humidity: 93%   Direction: 20°NNE
Pressure: 30.3"   Gusts: NA
Location:  51.08°N, 4.42°E
Report Text: EBAW 250120Z AUTO 02001KT 0250 R11/0650V1000N R29/1000VP2000D FZFG NCD M00/M01 Q1026
Loading
Personal Weather Stations






























Interactive Weather Map New forecast layout! Learn more

10-Day Weather Forecast

Advertisements
Track Severe Weather on mobile